Time;durP1;ratioP1;P1;durP2;ratioP2;P2;SDS_P1;SDS_P2;PMS_P1;PMS_P2;Temp;Humidity;BMP_temperature;BMP_pressure;BME280_temperature;BME280_humidity;BME280_pressure;Samples;Min_cycle;Max_cycle;Signal;HPM_P1;HPM_P2
2023/12/29 00:00:05;;;;;;;9.35;1.00;;;;;;;;;;5157914;27;20057;-75
2023/12/29 00:02:31;;;;;;;7.32;1.33;;;;;;;;;;5137408;27;20039;-77
2023/12/29 00:04:57;;;;;;;8.57;1.00;;;;;;;;;;5156052;27;20058;-74
2023/12/29 00:07:23;;;;;;;7.93;0.82;;;;;;;;;;5136851;27;20482;-74
2023/12/29 00:09:49;;;;;;;10.15;1.27;;;;;;;;;;5138024;27;20424;-75
2023/12/29 00:12:16;;;;;;;7.88;1.45;;;;;;;;;;5103463;27;20071;-74
2023/12/29 00:14:43;;;;;;;8.57;1.05;;;;;;;;;;5137097;27;20042;-77
2023/12/29 00:17:09;;;;;;;15.40;1.23;;;;;;;;;;5120076;27;20086;-74
2023/12/29 00:19:35;;;;;;;12.00;0.93;;;;;;;;;;5137055;27;20050;-75
2023/12/29 00:22:02;;;;;;;9.82;1.00;;;;;;;;;;5155215;27;20091;-76
2023/12/29 00:24:28;;;;;;;;;;;;;;;;;;5120551;27;20053;-73
2023/12/29 00:26:54;;;;;;;7.90;1.20;;;;;;;;;;5137921;27;19919;-75
2023/12/29 00:29:21;;;;;;;15.27;1.73;;;;;;;;;;5137152;27;20427;-72
2023/12/29 00:31:47;;;;;;;16.25;1.90;;;;;;;;;;5120206;27;20043;-76
2023/12/29 00:34:13;;;;;;;10.90;1.42;;;;;;;;;;5137752;27;20129;-74
2023/12/29 00:36:39;;;;;;;12.90;1.17;;;;;;;;;;5154880;27;20527;-75
2023/12/29 00:39:05;;;;;;;12.48;1.55;;;;;;;;;;5136835;27;20083;-76
2023/12/29 00:41:32;;;;;;;10.98;1.30;;;;;;;;;;5137552;27;20069;-74
2023/12/29 00:43:58;;;;;;;12.32;1.65;;;;;;;;;;5136947;27;20450;-75
2023/12/29 00:46:24;;;;;;;7.03;1.20;;;;;;;;;;5155142;27;20129;-76
2023/12/29 00:48:50;;;;;;;11.32;1.70;;;;;;;;;;5119541;27;20042;-75
2023/12/29 00:51:16;;;;;;;14.55;1.85;;;;;;;;;;5120172;27;20053;-75
2023/12/29 00:53:43;;;;;;;13.35;2.53;;;;;;;;;;5120484;27;20050;-75
2023/12/29 00:56:12;;;;;;;18.48;2.05;;;;;;;;;;5155573;27;20103;-73
2023/12/29 00:58:38;;;;;;;14.13;2.28;;;;;;;;;;5136666;27;20050;-75
2023/12/29 01:01:06;;;;;;;11.20;1.60;;;;;;;;;;5119396;27;20509;-74
2023/12/29 01:03:31;;;;;;;;;;;;;;;;;;5120644;27;20051;-75
2023/12/29 01:05:58;;;;;;;9.73;1.58;;;;;;;;;;5140160;27;19976;-76
2023/12/29 01:08:24;;;;;;;10.50;1.42;;;;;;;;;;5139131;27;20129;-74
2023/12/29 01:10:50;;;;;;;6.78;1.20;;;;;;;;;;5103632;27;20101;-77
2023/12/29 01:13:16;;;;;;;12.73;1.80;;;;;;;;;;5136625;27;20078;-76
2023/12/29 01:15:45;;;;;;;8.32;1.13;;;;;;;;;;5154929;27;20054;-75
2023/12/29 01:18:11;;;;;;;14.70;1.90;;;;;;;;;;5136665;27;20043;-78
2023/12/29 01:20:39;;;;;;;10.90;1.67;;;;;;;;;;5119697;27;20110;-76
2023/12/29 01:23:05;;;;;;;14.20;1.67;;;;;;;;;;5137802;27;20486;-77
2023/12/29 01:25:31;;;;;;;13.15;1.67;;;;;;;;;;5140924;27;20046;-76
2023/12/29 01:27:58;;;;;;;15.50;2.25;;;;;;;;;;5141230;27;20043;-77
2023/12/29 01:30:24;;;;;;;10.95;1.50;;;;;;;;;;5123563;27;20049;-77
2023/12/29 01:32:50;;;;;;;14.80;1.60;;;;;;;;;;5140287;27;20050;-74
2023/12/29 01:35:16;;;;;;;9.65;1.23;;;;;;;;;;5107174;27;20046;-76
2023/12/29 01:37:43;;;;;;;9.85;1.35;;;;;;;;;;5158590;27;20047;-74
2023/12/29 01:40:09;;;;;;;12.32;1.58;;;;;;;;;;5140215;27;20043;-75
2023/12/29 01:42:35;;;;;;;13.82;1.75;;;;;;;;;;5123152;27;20046;-77
2023/12/29 01:45:01;;;;;;;7.07;1.50;;;;;;;;;;5158560;27;20051;-76
2023/12/29 01:47:28;;;;;;;8.63;1.33;;;;;;;;;;5139930;27;20047;-76
2023/12/29 01:49:54;;;;;;;8.75;1.08;;;;;;;;;;5158881;27;20045;-76
2023/12/29 01:52:20;;;;;;;9.15;1.35;;;;;;;;;;5122953;27;20042;-74
2023/12/29 01:54:48;;;;;;;5.90;0.90;;;;;;;;;;5158263;27;20039;-75
2023/12/29 01:57:14;;;;;;;11.63;1.40;;;;;;;;;;5139694;27;20042;-76
2023/12/29 01:59:41;;;;;;;8.60;1.67;;;;;;;;;;5158070;27;20046;-76
2023/12/29 02:02:07;;;;;;;12.48;2.13;;;;;;;;;;5140305;27;20171;-77
2023/12/29 02:04:33;;;;;;;12.23;1.97;;;;;;;;;;5136488;27;20059;-75
2023/12/29 02:06:59;;;;;;;9.63;1.90;;;;;;;;;;5135916;27;20055;-74
2023/12/29 02:09:26;;;;;;;11.82;1.60;;;;;;;;;;5136196;27;20460;-75
2023/12/29 02:11:53;;;;;;;14.27;1.50;;;;;;;;;;5137548;27;20046;-76
2023/12/29 02:14:20;;;;;;;7.50;1.27;;;;;;;;;;5137023;27;20077;-75
2023/12/29 02:16:50;;;;;;;11.52;1.40;;;;;;;;;;5135629;27;20043;-70
2023/12/29 02:19:19;;;;;;;8.25;1.13;;;;;;;;;;5118927;27;20055;-72
2023/12/29 02:21:45;;;;;;;8.07;0.95;;;;;;;;;;5135619;27;20041;-71
2023/12/29 02:24:11;;;;;;;8.48;1.38;;;;;;;;;;5136880;27;20083;-71
2023/12/29 02:26:38;;;;;;;11.40;1.17;;;;;;;;;;5136889;27;20120;-71
2023/12/29 02:29:07;;;;;;;10.43;1.10;;;;;;;;;;5137406;27;20051;-71
2023/12/29 02:31:35;;;;;;;11.60;1.10;;;;;;;;;;5119550;27;20047;-77
2023/12/29 02:34:06;;;;;;;9.73;1.50;;;;;;;;;;5135686;27;20047;-72
2023/12/29 02:36:32;;;;;;;11.98;1.20;;;;;;;;;;5137591;27;20391;-72
2023/12/29 02:38:58;;;;;;;7.93;0.90;;;;;;;;;;5137167;27;20043;-73
2023/12/29 02:41:24;;;;;;;9.02;1.90;;;;;;;;;;5137142;27;20131;-73
2023/12/29 02:43:50;;;;;;;10.50;1.23;;;;;;;;;;5118453;27;20085;-71
2023/12/29 02:46:17;;;;;;;11.65;1.00;;;;;;;;;;5136576;27;20417;-72
2023/12/29 02:48:43;;;;;;;10.85;1.48;;;;;;;;;;5136460;27;20054;-72
2023/12/29 02:51:09;;;;;;;8.30;1.35;;;;;;;;;;5134860;27;20047;-72
2023/12/29 02:53:35;;;;;;;8.55;1.50;;;;;;;;;;5136478;27;20047;-71
2023/12/29 02:56:01;;;;;;;11.18;1.58;;;;;;;;;;5135051;27;20130;-74
2023/12/29 02:58:27;;;;;;;8.80;1.10;;;;;;;;;;5135253;27;20486;-74
2023/12/29 03:00:53;;;;;;;8.85;1.45;;;;;;;;;;5136964;27;20130;-73
2023/12/29 03:03:20;;;;;;;14.57;1.80;;;;;;;;;;5118638;27;20049;-72
2023/12/29 03:05:46;;;;;;;9.30;1.08;;;;;;;;;;5117420;27;20051;-73
2023/12/29 03:08:12;;;;;;;8.32;1.40;;;;;;;;;;5135044;27;20343;-73
2023/12/29 03:10:38;;;;;;;8.98;1.23;;;;;;;;;;5136752;27;20124;-73
2023/12/29 03:13:04;;;;;;;8.98;1.33;;;;;;;;;;5134951;27;20493;-73
2023/12/29 03:15:30;;;;;;;9.10;1.38;;;;;;;;;;5135091;27;20060;-74
2023/12/29 03:17:57;;;;;;;6.82;1.38;;;;;;;;;;5135492;27;20130;-73
2023/12/29 03:20:23;;;;;;;9.73;1.20;;;;;;;;;;5135755;27;20054;-73
2023/12/29 03:22:49;;;;;;;9.65;1.20;;;;;;;;;;5135666;27;20047;-73
2023/12/29 03:25:15;;;;;;;12.95;1.58;;;;;;;;;;5135182;27;20046;-72
2023/12/29 03:27:41;;;;;;;10.23;1.85;;;;;;;;;;5136410;27;20424;-72
2023/12/29 03:30:07;;;;;;;11.50;1.40;;;;;;;;;;5135261;27;20065;-72
2023/12/29 03:32:33;;;;;;;8.67;1.50;;;;;;;;;;5134373;27;20039;-72
2023/12/29 03:34:59;;;;;;;11.82;0.85;;;;;;;;;;5135933;27;20364;-73
2023/12/29 03:37:25;;;;;;;6.82;1.00;;;;;;;;;;5134935;27;20051;-75
2023/12/29 03:39:51;;;;;;;9.85;1.60;;;;;;;;;;5135452;27;20043;-72
2023/12/29 03:42:17;;;;;;;10.00;1.08;;;;;;;;;;5134922;27;20051;-71
2023/12/29 03:44:44;;;;;;;11.25;1.30;;;;;;;;;;5135555;27;20496;-72
2023/12/29 03:47:10;;;;;;;13.57;2.30;;;;;;;;;;5134880;27;20090;-71
2023/12/29 03:49:36;;;;;;;10.25;1.92;;;;;;;;;;5134111;27;20135;-71
2023/12/29 03:52:03;;;;;;;16.58;2.17;;;;;;;;;;5134002;27;20039;-74
2023/12/29 03:54:29;;;;;;;14.63;1.87;;;;;;;;;;5133994;27;20069;-71
2023/12/29 03:56:55;;;;;;;15.98;1.50;;;;;;;;;;5133910;27;20047;-74
2023/12/29 03:59:21;;;;;;;13.57;1.35;;;;;;;;;;5135875;27;20047;-72
2023/12/29 04:01:47;;;;;;;11.68;1.48;;;;;;;;;;5134953;27;20039;-72
2023/12/29 04:04:13;;;;;;;16.20;1.73;;;;;;;;;;5139932;27;20047;-73
2023/12/29 04:06:39;;;;;;;20.70;2.05;;;;;;;;;;5155701;27;20050;-71
2023/12/29 04:09:05;;;;;;;16.33;1.83;;;;;;;;;;5136703;27;20050;-70
2023/12/29 04:11:31;;;;;;;15.45;2.10;;;;;;;;;;5155520;27;20087;-70
2023/12/29 04:13:57;;;;;;;15.00;1.95;;;;;;;;;;5155518;27;20089;-71
2023/12/29 04:16:23;;;;;;;15.32;2.17;;;;;;;;;;5137033;27;20068;-71
2023/12/29 04:18:49;;;;;;;14.60;1.75;;;;;;;;;;5155458;27;20042;-71
2023/12/29 04:21:16;;;;;;;12.57;1.55;;;;;;;;;;5136812;27;20046;-71
2023/12/29 04:23:42;;;;;;;14.23;1.65;;;;;;;;;;5155435;27;20054;-71
2023/12/29 04:26:08;;;;;;;13.82;1.88;;;;;;;;;;5155789;27;20505;-71
2023/12/29 04:28:34;;;;;;;13.03;1.37;;;;;;;;;;5155360;27;20054;-71
2023/12/29 04:31:00;;;;;;;16.50;2.28;;;;;;;;;;5155769;27;20042;-74
2023/12/29 04:33:26;;;;;;;10.93;1.17;;;;;;;;;;5137548;27;20117;-72
2023/12/29 04:35:52;;;;;;;12.82;1.40;;;;;;;;;;5155208;27;20043;-73
2023/12/29 04:38:19;;;;;;;17.08;2.42;;;;;;;;;;5155617;27;20053;-73
2023/12/29 04:40:49;;;;;;;10.55;1.50;;;;;;;;;;5155709;27;20378;-71
2023/12/29 04:43:15;;;;;;;14.77;1.60;;;;;;;;;;5136512;27;20039;-71
2023/12/29 04:45:41;;;;;;;13.13;1.88;;;;;;;;;;5137722;27;20051;-73
2023/12/29 04:48:07;;;;;;;13.40;1.23;;;;;;;;;;5155040;27;20050;-74
2023/12/29 04:50:34;;;;;;;15.45;1.20;;;;;;;;;;5155118;27;20050;-72
2023/12/29 04:53:00;;;;;;;14.45;1.63;;;;;;;;;;5155130;27;20091;-72
2023/12/29 04:55:26;;;;;;;12.88;1.40;;;;;;;;;;5155601;27;20053;-72
2023/12/29 04:57:52;;;;;;;14.60;1.42;;;;;;;;;;5137958;27;20095;-72
2023/12/29 05:00:18;;;;;;;12.80;1.40;;;;;;;;;;5159772;27;20063;-74
2023/12/29 05:02:44;;;;;;;16.08;1.90;;;;;;;;;;5141260;27;20042;-72
2023/12/29 05:05:10;;;;;;;15.55;2.35;;;;;;;;;;5159348;27;20137;-72
2023/12/29 05:07:37;;;;;;;13.50;1.60;;;;;;;;;;5159159;27;20050;-72
2023/12/29 05:10:03;;;;;;;15.23;1.33;;;;;;;;;;5159038;27;20042;-72
2023/12/29 05:12:30;;;;;;;20.48;1.70;;;;;;;;;;5158990;27;20038;-72
2023/12/29 05:14:56;;;;;;;18.30;2.03;;;;;;;;;;5140842;27;20047;-73
2023/12/29 05:17:22;;;;;;;13.20;1.35;;;;;;;;;;5158880;27;20047;-73
2023/12/29 05:19:48;;;;;;;11.70;1.65;;;;;;;;;;5159125;27;20134;-71
2023/12/29 05:22:17;;;;;;;15.93;1.88;;;;;;;;;;5140374;27;20043;-72
2023/12/29 05:24:45;;;;;;;15.15;1.63;;;;;;;;;;5140459;27;20046;-74
2023/12/29 05:27:11;;;;;;;13.68;1.15;;;;;;;;;;5158701;27;20053;-74
2023/12/29 05:29:37;;;;;;;20.27;2.33;;;;;;;;;;5158922;27;20042;-73
2023/12/29 05:32:04;;;;;;;18.98;2.35;;;;;;;;;;5159155;27;20038;-72
2023/12/29 05:34:30;;;;;;;13.43;1.17;;;;;;;;;;5140674;27;20042;-74
2023/12/29 05:36:56;;;;;;;14.75;1.83;;;;;;;;;;5140733;27;20053;-72
2023/12/29 05:39:22;;;;;;;20.05;1.92;;;;;;;;;;5159344;27;20043;-72
2023/12/29 05:41:48;;;;;;;8.73;0.82;;;;;;;;;;5140697;27;20038;-73
2023/12/29 05:44:15;;;;;;;19.08;2.15;;;;;;;;;;5140922;27;20050;-74
2023/12/29 05:46:41;;;;;;;17.42;1.75;;;;;;;;;;5159681;27;20043;-74
2023/12/29 05:49:07;;;;;;;18.35;2.00;;;;;;;;;;5140407;27;20058;-73
2023/12/29 05:51:34;;;;;;;21.48;2.42;;;;;;;;;;5158933;27;20047;-73
2023/12/29 05:54:00;;;;;;;16.33;1.42;;;;;;;;;;5140955;27;20057;-73
2023/12/29 05:56:26;;;;;;;13.07;1.33;;;;;;;;;;5141074;27;20046;-73
2023/12/29 05:58:52;;;;;;;15.82;1.33;;;;;;;;;;5159156;27;20046;-73
2023/12/29 06:01:18;;;;;;;20.42;1.80;;;;;;;;;;5159385;27;20047;-75
2023/12/29 06:03:44;;;;;;;16.67;1.40;;;;;;;;;;5158763;27;20049;-73
2023/12/29 06:06:10;;;;;;;18.13;1.63;;;;;;;;;;5158261;27;20087;-74
2023/12/29 06:08:36;;;;;;;20.90;1.80;;;;;;;;;;5158012;27;20074;-72
2023/12/29 06:11:02;;;;;;;23.98;2.65;;;;;;;;;;5139810;27;20055;-74
2023/12/29 06:13:29;;;;;;;17.42;1.85;;;;;;;;;;5157875;27;20047;-74
2023/12/29 06:15:58;;;;;;;18.95;2.17;;;;;;;;;;5157654;27;20549;-74
2023/12/29 06:18:25;;;;;;;15.30;1.75;;;;;;;;;;5158658;27;20462;-73
2023/12/29 06:20:51;;;;;;;22.67;2.20;;;;;;;;;;5158050;27;20053;-73
2023/12/29 06:23:17;;;;;;;16.45;2.15;;;;;;;;;;5157618;27;20038;-73
2023/12/29 06:25:43;;;;;;;18.20;1.73;;;;;;;;;;5157681;27;20133;-73
2023/12/29 06:28:09;;;;;;;17.42;1.98;;;;;;;;;;5139690;27;20046;-71
2023/12/29 06:30:35;;;;;;;16.13;1.40;;;;;;;;;;5157712;27;20047;-72
2023/12/29 06:33:02;;;;;;;19.20;1.98;;;;;;;;;;5158034;27;20039;-71
2023/12/29 06:35:28;;;;;;;14.32;2.45;;;;;;;;;;5139106;27;20047;-73
2023/12/29 06:37:54;;;;;;;14.82;1.67;;;;;;;;;;5157319;27;20071;-73
2023/12/29 06:40:20;;;;;;;18.50;1.58;;;;;;;;;;5121824;27;20042;-71
2023/12/29 06:42:46;;;;;;;23.60;2.65;;;;;;;;;;5157250;27;20395;-71
2023/12/29 06:45:12;;;;;;;19.77;2.35;;;;;;;;;;5121887;27;20047;-73
2023/12/29 06:47:38;;;;;;;26.65;2.20;;;;;;;;;;5121722;27;20129;-71
2023/12/29 06:50:06;;;;;;;26.63;2.30;;;;;;;;;;5157100;27;20054;-72
2023/12/29 06:52:33;;;;;;;18.83;1.85;;;;;;;;;;5138875;27;20078;-73
2023/12/29 06:55:01;;;;;;;21.52;1.60;;;;;;;;;;5157094;27;20061;-71
2023/12/29 06:57:27;;;;;;;19.40;1.85;;;;;;;;;;5156861;27;20075;-72
2023/12/29 06:59:53;;;;;;;24.35;2.20;;;;;;;;;;5139195;27;20054;-72
2023/12/29 07:02:19;;;;;;;18.42;1.35;;;;;;;;;;5157658;27;20089;-72
2023/12/29 07:04:45;;;;;;;23.83;2.53;;;;;;;;;;5157269;27;20400;-70
2023/12/29 07:07:12;;;;;;;15.98;1.98;;;;;;;;;;5139150;27;20352;-71
2023/12/29 07:09:39;;;;;;;25.13;2.78;;;;;;;;;;5138306;27;20050;-72
2023/12/29 07:12:06;;;;;;;23.75;1.98;;;;;;;;;;5138470;27;20043;-70
2023/12/29 07:14:32;;;;;;;18.55;2.63;;;;;;;;;;5156245;27;20503;-70
2023/12/29 07:16:58;;;;;;;22.33;2.13;;;;;;;;;;5138256;27;20074;-73
2023/12/29 07:19:24;;;;;;;20.90;1.85;;;;;;;;;;5138266;27;20042;-72
2023/12/29 07:21:50;;;;;;;21.23;1.85;;;;;;;;;;5137456;27;20415;-71
2023/12/29 07:24:16;;;;;;;19.92;2.45;;;;;;;;;;5156451;27;20129;-70
2023/12/29 07:26:42;;;;;;;23.55;2.13;;;;;;;;;;5157117;27;20438;-71
2023/12/29 07:29:08;;;;;;;23.42;2.05;;;;;;;;;;5156672;27;20053;-71
2023/12/29 07:31:38;;;;;;;19.13;2.65;;;;;;;;;;5137953;27;20068;-72
2023/12/29 07:34:04;;;;;;;17.92;1.77;;;;;;;;;;5138563;27;20466;-71
2023/12/29 07:36:31;;;;;;;26.60;2.63;;;;;;;;;;5121104;27;20039;-70
2023/12/29 07:38:57;;;;;;;15.85;1.65;;;;;;;;;;5155877;27;20046;-72
2023/12/29 07:41:23;;;;;;;17.98;1.98;;;;;;;;;;5137562;27;20078;-71
2023/12/29 07:43:49;;;;;;;18.90;2.17;;;;;;;;;;5137360;27;20505;-71
2023/12/29 07:46:24;;;;;;;20.30;2.75;;;;;;;;;;5138434;27;20050;-71
2023/12/29 07:48:56;;;;;;;10.57;1.40;;;;;;;;;;5138623;27;20049;-70
2023/12/29 07:51:22;;;;;;;21.30;2.00;;;;;;;;;;5155943;27;20042;-72
2023/12/29 07:53:48;;;;;;;12.65;1.55;;;;;;;;;;5155706;27;20185;-70
2023/12/29 07:56:14;;;;;;;22.65;2.25;;;;;;;;;;5137475;27;20043;-70
2023/12/29 07:58:40;;;;;;;21.80;2.38;;;;;;;;;;5120286;27;20054;-70
2023/12/29 08:01:06;;;;;;;16.20;2.05;;;;;;;;;;5137585;27;20188;-70
2023/12/29 08:03:32;;;;;;;20.15;2.58;;;;;;;;;;5136873;27;20039;-70
2023/12/29 08:05:58;;;;;;;19.08;2.35;;;;;;;;;;5133607;27;20062;-70
2023/12/29 08:08:25;;;;;;;15.13;1.67;;;;;;;;;;5133773;27;20050;-71
2023/12/29 08:10:51;;;;;;;22.42;2.45;;;;;;;;;;5134740;27;20047;-71
2023/12/29 08:13:17;;;;;;;20.63;2.13;;;;;;;;;;5133903;27;20050;-70
2023/12/29 08:15:43;;;;;;;16.65;1.95;;;;;;;;;;5135229;27;20089;-71
2023/12/29 08:18:09;;;;;;;25.02;2.75;;;;;;;;;;5133341;27;20520;-69
2023/12/29 08:20:35;;;;;;;22.50;2.35;;;;;;;;;;5134592;27;20133;-71
2023/12/29 08:23:02;;;;;;;10.98;1.63;;;;;;;;;;5135344;27;20047;-71
2023/12/29 08:25:28;;;;;;;;;;;;;;;;;;5134093;27;20047;-70
2023/12/29 08:27:54;;;;;;;12.80;1.33;;;;;;;;;;5116446;27;19925;-72
2023/12/29 08:30:21;;;;;;;17.77;1.80;;;;;;;;;;5116538;27;20129;-70
2023/12/29 08:32:47;;;;;;;18.42;2.30;;;;;;;;;;5132498;27;20466;-70
2023/12/29 08:35:13;;;;;;;16.58;1.58;;;;;;;;;;5133554;27;20043;-70
2023/12/29 08:37:39;;;;;;;12.20;1.48;;;;;;;;;;5134694;27;20050;-71
2023/12/29 08:40:06;;;;;;;14.85;1.88;;;;;;;;;;5135024;27;20584;-70
2023/12/29 08:42:32;;;;;;;17.63;1.77;;;;;;;;;;5134385;27;20046;-70
2023/12/29 08:44:59;;;;;;;12.13;1.67;;;;;;;;;;5133167;28;20050;-70
2023/12/29 08:47:25;;;;;;;12.63;1.65;;;;;;;;;;5134421;27;20062;-71
2023/12/29 08:49:51;;;;;;;15.63;1.67;;;;;;;;;;5116219;28;20047;-70
2023/12/29 08:52:17;;;;;;;15.93;1.65;;;;;;;;;;5133107;28;20043;-70
2023/12/29 08:54:43;;;;;;;11.45;1.63;;;;;;;;;;5135039;28;20093;-75
2023/12/29 08:57:10;;;;;;;11.00;1.70;;;;;;;;;;5133983;28;20103;-72
2023/12/29 08:59:36;;;;;;;6.93;1.60;;;;;;;;;;5134343;27;20043;-72
2023/12/29 09:02:02;;;;;;;12.27;1.85;;;;;;;;;;5116844;28;20039;-72
2023/12/29 09:04:28;;;;;;;13.48;1.52;;;;;;;;;;5132717;28;20514;-75
2023/12/29 09:06:54;;;;;;;9.38;1.50;;;;;;;;;;5133022;28;20047;-74
2023/12/29 09:09:21;;;;;;;7.05;0.93;;;;;;;;;;5134177;28;20072;-73
2023/12/29 09:11:47;;;;;;;10.77;1.30;;;;;;;;;;5132969;28;20047;-71
2023/12/29 09:14:13;;;;;;;9.50;1.15;;;;;;;;;;5132824;28;20062;-72
2023/12/29 09:16:40;;;;;;;11.18;1.40;;;;;;;;;;5115606;28;20047;-73
2023/12/29 09:19:07;;;;;;;13.38;1.35;;;;;;;;;;5133365;28;20054;-72
2023/12/29 09:21:33;;;;;;;12.40;1.83;;;;;;;;;;5132653;28;20054;-71
2023/12/29 09:23:59;;;;;;;9.18;1.02;;;;;;;;;;5133578;28;20535;-70
2023/12/29 09:26:25;;;;;;;12.23;1.25;;;;;;;;;;5132462;28;20055;-72
2023/12/29 09:28:51;;;;;;;13.27;1.50;;;;;;;;;;5132876;28;20082;-71
2023/12/29 09:31:17;;;;;;;10.05;1.33;;;;;;;;;;5134427;28;20104;-72
2023/12/29 09:33:44;;;;;;;10.38;1.70;;;;;;;;;;5132560;28;20122;-72
2023/12/29 09:36:10;;;;;;;7.10;1.23;;;;;;;;;;5134103;28;20110;-72
2023/12/29 09:38:37;;;;;;;6.22;1.05;;;;;;;;;;5133604;28;20047;-72
2023/12/29 09:41:06;;;;;;;10.00;1.17;;;;;;;;;;5133725;27;20104;-72
2023/12/29 09:43:32;;;;;;;8.70;1.20;;;;;;;;;;5134276;27;20039;-72
2023/12/29 09:45:59;;;;;;;7.28;0.95;;;;;;;;;;5136491;27;20057;-72
2023/12/29 09:48:26;;;;;;;;;;;;;;;;;;5136823;27;20043;-71
2023/12/29 09:50:53;;;;;;;16.25;1.15;;;;;;;;;;5119532;27;19919;-71
2023/12/29 09:53:24;;;;;;;4.93;0.70;;;;;;;;;;5137403;27;20074;-71
2023/12/29 09:55:51;;;;;;;6.55;1.25;;;;;;;;;;5136526;27;20043;-71
2023/12/29 09:58:19;;;;;;;5.70;0.80;;;;;;;;;;5136606;27;20047;-72
2023/12/29 10:00:47;;;;;;;10.82;1.17;;;;;;;;;;5137281;27;20039;-71
2023/12/29 10:03:13;;;;;;;7.95;1.10;;;;;;;;;;5135975;27;20074;-71
2023/12/29 10:05:39;;;;;;;9.38;1.00;;;;;;;;;;5155264;27;20053;-71
2023/12/29 10:08:08;;;;;;;7.18;0.90;;;;;;;;;;5105943;27;20380;-71
2023/12/29 10:10:35;;;;;;;5.43;0.80;;;;;;;;;;5139488;27;20546;-72
2023/12/29 10:13:01;;;;;;;6.18;0.77;;;;;;;;;;5140173;27;20046;-73
2023/12/29 10:15:47;;;;;;;8.60;0.70;;;;;;;;;;5139848;27;20581;-75
2023/12/29 10:18:33;;;;;;;5.63;0.60;;;;;;;;;;5157962;27;20043;-73
2023/12/29 10:21:05;;;;;;;1.55;0.10;;;;;;;;;;5157561;27;20043;-73
2023/12/29 10:23:43;;;;;;;1.83;0.20;;;;;;;;;;5139286;27;20092;-72
2023/12/29 10:26:11;;;;;;;1.98;0.13;;;;;;;;;;5140003;27;20086;-74
2023/12/29 10:28:37;;;;;;;2.78;0.10;;;;;;;;;;5139401;27;20562;-73
2023/12/29 10:31:05;;;;;;;3.33;0.45;;;;;;;;;;5158269;27;20077;-74
2023/12/29 10:33:32;;;;;;;2.58;0.30;;;;;;;;;;5122977;27;20043;-72
2023/12/29 10:36:07;;;;;;;4.13;0.20;;;;;;;;;;5157483;27;20046;-72
2023/12/29 10:38:33;;;;;;;3.85;0.25;;;;;;;;;;5158147;27;20051;-74
2023/12/29 10:41:16;;;;;;;3.15;0.25;;;;;;;;;;5157808;27;20062;-71
2023/12/29 10:43:42;;;;;;;4.18;0.20;;;;;;;;;;5138708;27;20038;-72
2023/12/29 10:46:09;;;;;;;2.92;0.40;;;;;;;;;;5122139;27;20122;-73
2023/12/29 10:48:35;;;;;;;4.03;0.30;;;;;;;;;;5157193;27;20047;-72
2023/12/29 10:51:03;;;;;;;5.57;0.65;;;;;;;;;;5138798;27;20046;-71
2023/12/29 10:53:37;;;;;;;6.43;0.47;;;;;;;;;;5122274;27;20164;-71
2023/12/29 10:56:03;;;;;;;6.50;0.40;;;;;;;;;;5155789;27;20053;-72
2023/12/29 10:58:31;;;;;;;5.22;0.68;;;;;;;;;;5156899;27;20082;-72
2023/12/29 11:00:57;;;;;;;4.95;0.50;;;;;;;;;;5156720;27;20134;-74
2023/12/29 11:03:24;;;;;;;7.03;0.80;;;;;;;;;;5138410;27;20482;-73
2023/12/29 11:05:51;;;;;;;3.17;0.40;;;;;;;;;;5138075;27;20179;-70
2023/12/29 11:08:21;;;;;;;5.95;0.85;;;;;;;;;;5138163;27;20061;-72
2023/12/29 11:10:50;;;;;;;5.10;0.75;;;;;;;;;;5138221;27;20073;-71
2023/12/29 11:13:17;;;;;;;8.25;0.93;;;;;;;;;;5137948;27;20039;-72
2023/12/29 11:15:45;;;;;;;8.53;0.97;;;;;;;;;;5156774;27;20085;-72
2023/12/29 11:18:18;;;;;;;14.20;1.10;;;;;;;;;;5138102;27;20292;-70
2023/12/29 11:20:46;;;;;;;7.00;0.93;;;;;;;;;;5156490;27;20088;-71
2023/12/29 11:23:15;;;;;;;7.40;1.58;;;;;;;;;;5156317;27;20043;-72
2023/12/29 11:25:46;;;;;;;11.50;1.50;;;;;;;;;;5138845;27;20416;-70
2023/12/29 11:28:12;;;;;;;11.02;1.55;;;;;;;;;;5157140;27;20137;-71
2023/12/29 11:30:39;;;;;;;10.07;1.55;;;;;;;;;;5121361;27;20485;-70
2023/12/29 11:33:08;;;;;;;12.23;2.03;;;;;;;;;;5156194;27;20053;-70
2023/12/29 11:35:40;;;;;;;13.82;1.98;;;;;;;;;;5156216;27;20081;-71
2023/12/29 11:38:26;;;;;;;13.30;2.65;;;;;;;;;;5156167;27;20107;-70
2023/12/29 11:41:12;;;;;;;11.98;2.05;;;;;;;;;;5138547;27;20051;-73
2023/12/29 11:43:38;;;;;;;13.65;1.98;;;;;;;;;;5119788;27;20047;-71
2023/12/29 11:46:04;;;;;;;12.32;1.70;;;;;;;;;;5137207;27;20134;-71
2023/12/29 11:48:49;;;;;;;13.18;1.70;;;;;;;;;;5156018;27;20039;-70
2023/12/29 11:51:28;;;;;;;18.30;1.85;;;;;;;;;;5155784;27;20043;-71
2023/12/29 11:53:54;;;;;;;9.43;1.80;;;;;;;;;;5121271;27;20085;-70
2023/12/29 11:56:20;;;;;;;13.88;2.35;;;;;;;;;;5137471;27;20121;-71
2023/12/29 11:58:46;;;;;;;10.82;1.58;;;;;;;;;;5120662;27;20133;-71
2023/12/29 12:01:12;;;;;;;10.88;1.90;;;;;;;;;;5138109;27;20138;-71
2023/12/29 12:03:39;;;;;;;17.80;1.50;;;;;;;;;;5156101;27;20096;-70
2023/12/29 12:06:05;;;;;;;12.32;1.17;;;;;;;;;;5136735;27;20529;-70
2023/12/29 12:08:35;;;;;;;11.43;1.50;;;;;;;;;;5120254;27;20053;-70
2023/12/29 12:11:20;;;;;;;13.52;1.38;;;;;;;;;;5120161;27;20046;-69
2023/12/29 12:13:47;;;;;;;12.68;1.20;;;;;;;;;;5155475;27;20486;-71
2023/12/29 12:16:32;;;;;;;14.73;1.40;;;;;;;;;;5155914;27;20130;-70
2023/12/29 12:18:58;;;;;;;10.18;0.90;;;;;;;;;;5137211;27;20089;-70
2023/12/29 12:21:25;;;;;;;10.38;0.65;;;;;;;;;;5136474;27;20183;-70
2023/12/29 12:23:53;;;;;;;10.95;1.17;;;;;;;;;;5136931;27;20034;-69
2023/12/29 12:26:21;;;;;;;13.32;0.80;;;;;;;;;;5155666;27;20043;-69
2023/12/29 12:28:47;;;;;;;11.90;0.88;;;;;;;;;;5155295;27;20054;-70
2023/12/29 12:31:14;;;;;;;9.20;0.95;;;;;;;;;;5137317;27;20459;-69
2023/12/29 12:33:40;;;;;;;10.45;1.35;;;;;;;;;;5155107;27;20038;-69
2023/12/29 12:36:07;;;;;;;11.55;0.82;;;;;;;;;;5155067;27;20047;-70
2023/12/29 12:38:33;;;;;;;10.13;1.00;;;;;;;;;;5155082;27;20053;-70
2023/12/29 12:41:11;;;;;;;11.63;1.40;;;;;;;;;;5136367;27;20470;-70
2023/12/29 12:43:39;;;;;;;14.65;1.17;;;;;;;;;;5155737;27;20051;-70
2023/12/29 12:46:10;;;;;;;9.55;0.73;;;;;;;;;;5136835;27;20042;-68
2023/12/29 12:48:47;;;;;;;8.25;0.60;;;;;;;;;;5137618;27;20050;-69
2023/12/29 12:51:13;;;;;;;15.73;1.08;;;;;;;;;;5156103;27;20074;-69
2023/12/29 12:53:40;;;;;;;10.50;0.60;;;;;;;;;;5155820;27;20043;-70
2023/12/29 12:56:07;;;;;;;13.85;1.10;;;;;;;;;;5154632;27;20549;-69
2023/12/29 12:58:34;;;;;;;8.30;0.93;;;;;;;;;;5136567;27;20038;-69
2023/12/29 13:01:00;;;;;;;11.65;0.80;;;;;;;;;;5154928;27;20050;-70
2023/12/29 13:03:27;;;;;;;9.05;0.68;;;;;;;;;;5136316;27;20038;-70
2023/12/29 13:05:53;;;;;;;10.80;0.60;;;;;;;;;;5155239;27;20059;-71
2023/12/29 13:08:20;;;;;;;9.02;1.00;;;;;;;;;;5154740;27;20129;-70
2023/12/29 13:10:47;;;;;;;7.88;0.73;;;;;;;;;;5136609;27;20053;-70
2023/12/29 13:13:14;;;;;;;9.50;0.70;;;;;;;;;;5136428;27;20042;-70
2023/12/29 13:15:47;;;;;;;10.23;0.82;;;;;;;;;;5136202;27;20042;-70
2023/12/29 13:18:13;;;;;;;8.65;0.98;;;;;;;;;;5119430;27;20053;-72
2023/12/29 13:20:45;;;;;;;7.55;0.75;;;;;;;;;;5140419;27;20046;-70
2023/12/29 13:23:12;;;;;;;8.27;0.50;;;;;;;;;;5158575;27;20046;-69
2023/12/29 13:25:39;;;;;;;6.88;0.50;;;;;;;;;;5140327;27;20425;-69
2023/12/29 13:28:06;;;;;;;7.72;0.75;;;;;;;;;;5158643;27;20506;-71
2023/12/29 13:30:33;;;;;;;12.23;0.52;;;;;;;;;;5140385;27;20460;-71
2023/12/29 13:32:59;;;;;;;7.40;0.63;;;;;;;;;;5140324;27;20081;-72
2023/12/29 13:35:35;;;;;;;8.30;0.52;;;;;;;;;;5123666;27;20042;-71
2023/12/29 13:38:02;;;;;;;11.55;0.80;;;;;;;;;;5139936;27;20132;-71
2023/12/29 13:40:36;;;;;;;9.30;1.02;;;;;;;;;;5158380;27;20055;-70
2023/12/29 13:43:03;;;;;;;12.80;0.65;;;;;;;;;;5140215;27;20096;-71
2023/12/29 13:45:30;;;;;;;12.35;1.10;;;;;;;;;;5139999;27;20416;-70
2023/12/29 13:47:56;;;;;;;5.13;0.52;;;;;;;;;;5139953;27;20042;-72
2023/12/29 13:50:23;;;;;;;8.55;1.10;;;;;;;;;;5140710;27;20043;-70
2023/12/29 13:52:50;;;;;;;11.27;0.85;;;;;;;;;;5158118;27;20466;-71
2023/12/29 13:55:22;;;;;;;8.02;0.70;;;;;;;;;;5158065;27;20054;-70
2023/12/29 13:57:48;;;;;;;7.20;0.80;;;;;;;;;;5139531;27;20138;-74
2023/12/29 14:00:22;;;;;;;6.97;0.80;;;;;;;;;;5157744;27;20554;-70
2023/12/29 14:03:08;;;;;;;12.23;0.60;;;;;;;;;;5157912;27;20135;-71
2023/12/29 14:05:49;;;;;;;8.05;1.30;;;;;;;;;;5140183;27;20095;-71
2023/12/29 14:08:20;;;;;;;14.25;0.93;;;;;;;;;;5158462;27;20176;-71
2023/12/29 14:10:46;;;;;;;11.75;0.95;;;;;;;;;;5158047;27;20046;-71
2023/12/29 14:13:13;;;;;;;8.88;0.82;;;;;;;;;;5122282;27;20078;-71
2023/12/29 14:15:40;;;;;;;9.20;1.00;;;;;;;;;;5139319;27;20049;-71
2023/12/29 14:18:12;;;;;;;8.80;0.43;;;;;;;;;;5157331;27;20038;-72
2023/12/29 14:20:41;;;;;;;11.40;1.15;;;;;;;;;;5157531;27;20071;-72
2023/12/29 14:23:09;;;;;;;12.13;0.90;;;;;;;;;;5157443;27;20038;-72
2023/12/29 14:25:36;;;;;;;8.60;0.70;;;;;;;;;;5139453;27;20043;-73
2023/12/29 14:28:14;;;;;;;11.23;0.60;;;;;;;;;;5157446;27;20149;-72
2023/12/29 14:30:40;;;;;;;10.45;0.50;;;;;;;;;;5157433;27;20474;-71
2023/12/29 14:33:07;;;;;;;7.85;0.40;;;;;;;;;;5157043;27;20602;-72
2023/12/29 14:35:34;;;;;;;9.65;1.13;;;;;;;;;;5139666;27;20082;-71